createdAt,value
2022-11-29T13:36:46.482Z,-21.28
2022-11-29T13:39:48.170Z,-21.24
2022-11-29T13:42:41.693Z,-21.23
2022-11-29T13:45:32.898Z,-21.23
2022-11-29T13:48:27.673Z,-21.29
2022-11-29T13:50:58.463Z,-21.29
2022-11-29T13:53:48.161Z,-21.30
2022-11-29T13:56:34.313Z,-21.34
2022-11-29T13:59:09.504Z,-21.17
2022-11-29T14:01:51.201Z,-21.25
2022-11-29T14:04:22.870Z,-21.21
2022-11-29T14:07:10.732Z,-21.36
2022-11-29T14:09:58.065Z,-21.27
2022-11-29T14:12:42.865Z,-21.31
2022-11-29T14:15:38.047Z,-21.29
2022-11-29T14:18:10.786Z,-21.45
2022-11-29T14:20:44.992Z,-21.23
2022-11-29T14:23:13.915Z,-21.23
2022-11-29T14:25:57.360Z,-21.21
2022-11-29T14:28:35.437Z,-21.20
2022-11-29T14:31:09.565Z,-21.21
2022-11-29T14:33:57.317Z,-21.23
2022-11-29T14:36:51.516Z,-21.77
2022-11-29T14:39:50.383Z,-21.32
2022-11-29T14:42:25.096Z,-21.51
2022-11-29T14:44:55.385Z,-21.34
2022-11-29T14:47:35.947Z,-21.39
2022-11-29T14:50:09.902Z,-21.42
2022-11-29T14:52:51.860Z,-21.36
2022-11-29T14:55:26.969Z,-21.26
2022-11-29T14:58:07.094Z,-21.26
2022-11-29T15:01:03.917Z,-21.32
2022-11-29T15:03:48.942Z,-21.46
2022-11-29T15:06:27.584Z,-21.34
2022-11-29T15:09:03.480Z,-21.17
2022-11-29T15:12:08.020Z,-21.25
2022-11-29T15:14:42.571Z,-21.12
2022-11-29T15:17:32.975Z,-21.13
2022-11-29T15:20:49.992Z,-21.08
2022-11-29T15:23:20.592Z,-21.59
2022-11-29T15:25:55.582Z,-21.04
2022-11-29T15:28:27.723Z,-20.98
2022-11-29T15:31:12.964Z,-21.03
2022-11-29T15:45:22.859Z,-20.95
2022-11-29T15:47:51.669Z,-20.93
2022-11-29T15:50:30.090Z,-20.87
2022-11-29T15:53:04.170Z,-20.98
2022-11-29T15:55:34.092Z,-21.10
2022-11-29T15:58:08.633Z,-21.07
2022-11-29T16:00:38.586Z,-20.88
2022-11-29T16:03:17.689Z,-21.05
2022-11-29T16:05:53.589Z,-20.97
2022-11-29T16:08:22.648Z,-20.94
2022-11-29T16:10:54.057Z,-20.90
2022-11-29T16:13:41.850Z,-20.87
2022-11-29T16:16:18.512Z,-20.90
2022-11-29T16:18:48.951Z,-20.98
2022-11-29T16:21:32.470Z,-20.90
2022-11-29T16:24:23.504Z,-20.88
2022-11-29T16:26:53.057Z,-21.06
2022-11-29T16:29:28.245Z,-21.01
2022-11-29T16:31:57.868Z,-21.05
2022-11-29T16:34:34.738Z,-21.03
2022-11-29T16:37:29.375Z,-20.92
2022-11-29T16:40:02.778Z,-21.06
2022-11-29T16:42:34.099Z,-20.91
2022-11-29T16:45:26.457Z,-21.40
2022-11-29T16:48:02.562Z,-21.20
2022-11-29T16:50:33.099Z,-21.42
2022-11-29T16:53:36.160Z,-20.90
2022-11-29T16:56:19.718Z,-21.08
2022-11-29T16:59:17.332Z,-21.06
2022-11-29T17:01:42.552Z,-21.10
2022-11-29T17:04:11.264Z,-20.95
2022-11-29T17:06:40.140Z,-21.00
2022-11-29T17:09:11.102Z,-20.96
2022-11-29T17:11:40.232Z,-20.92
2022-11-29T17:14:09.940Z,-20.87
2022-11-29T17:16:39.975Z,-20.90
2022-11-29T17:19:14.098Z,-20.81
2022-11-29T17:21:43.729Z,-20.81
2022-11-29T17:24:15.260Z,-20.89
2022-11-29T17:26:45.151Z,-21.27
2022-11-29T17:29:16.008Z,-20.90
2022-11-29T17:31:46.884Z,-20.91
2022-11-29T17:34:15.620Z,-20.74
2022-11-29T17:36:46.050Z,-20.83
2022-11-29T17:39:16.378Z,-20.85
2022-11-29T17:41:45.059Z,-20.91
2022-11-29T17:44:14.122Z,-21.05
2022-11-29T17:46:42.606Z,-21.33
2022-11-29T17:49:11.675Z,-20.94
2022-11-29T17:51:56.440Z,-20.85
2022-11-29T17:54:25.462Z,-21.12
2022-11-29T17:56:54.083Z,-21.02
2022-11-29T17:59:22.839Z,-20.91
2022-11-29T18:01:51.990Z,-20.84
2022-11-29T18:04:20.600Z,-20.88
2022-11-29T18:06:52.311Z,-20.92
2022-11-29T18:09:21.160Z,-20.88
2022-11-29T18:11:50.704Z,-20.89
2022-11-29T18:14:23.810Z,-20.90
2022-11-29T18:16:53.365Z,-20.84
2022-11-29T18:19:23.693Z,-20.83
2022-11-29T18:21:52.775Z,-20.93
2022-11-29T18:24:21.519Z,-20.98
2022-11-29T18:26:50.123Z,-20.81
2022-11-29T18:29:18.683Z,-20.87
2022-11-29T18:31:47.723Z,-20.95
2022-11-29T18:34:17.114Z,-21.05
2022-11-29T18:36:48.292Z,-20.91
2022-11-29T18:39:20.105Z,-21.03
2022-11-29T18:41:50.909Z,-20.97
2022-11-29T18:44:22.485Z,-21.22
2022-11-29T18:46:51.276Z,-21.10
2022-11-29T18:49:20.193Z,-21.15
2022-11-29T18:51:50.001Z,-21.24
2022-11-29T18:54:20.081Z,-21.17
2022-11-29T18:56:52.524Z,-21.26
2022-11-29T18:59:22.744Z,-21.36
2022-11-29T19:01:51.778Z,-21.20
2022-11-29T19:04:22.028Z,-21.29
2022-11-29T19:06:50.996Z,-21.41
2022-11-29T19:09:22.277Z,-21.44
2022-11-29T19:11:54.111Z,-21.53
2022-11-29T19:14:22.775Z,-21.38
2022-11-29T19:16:51.873Z,-21.57
2022-11-29T19:19:20.863Z,-21.41
2022-11-29T19:21:50.119Z,-21.57
2022-11-29T19:24:19.098Z,-21.59
2022-11-29T19:26:50.413Z,-21.62
2022-11-29T19:29:19.418Z,-21.50
2022-11-29T19:31:51.279Z,-21.52
2022-11-29T19:34:19.881Z,-21.66
2022-11-29T19:36:48.668Z,-21.76
2022-11-29T19:39:18.468Z,-21.78
2022-11-29T19:41:48.810Z,-22.50
2022-11-29T19:44:17.648Z,-21.77
2022-11-29T19:46:49.148Z,-21.94
2022-11-29T19:49:18.366Z,-21.97
2022-11-29T19:51:47.026Z,-21.93
2022-11-29T19:54:16.351Z,-21.97
2022-11-29T19:56:45.255Z,-22.07
2022-11-29T19:59:14.229Z,-22.07
2022-11-29T20:01:43.351Z,-22.11
2022-11-29T20:04:14.387Z,-21.86
2022-11-29T20:06:43.567Z,-21.95
2022-11-29T20:09:14.563Z,-21.90
2022-11-29T20:11:43.162Z,-22.05
2022-11-29T20:14:13.567Z,-21.95
2022-11-29T20:16:43.370Z,-22.08
2022-11-29T20:19:14.589Z,-22.04
2022-11-29T20:21:50.067Z,-22.11
2022-11-29T20:24:20.065Z,-22.02
2022-11-29T20:26:50.543Z,-22.14
2022-11-29T20:29:20.147Z,-22.06
2022-11-29T20:31:50.942Z,-22.16
2022-11-29T20:34:20.907Z,-22.12
2022-11-29T20:37:11.038Z,-22.01
2022-11-29T20:39:45.765Z,-22.02
2022-11-29T20:42:23.603Z,-22.08
2022-11-29T20:45:01.089Z,-22.14
2022-11-29T20:47:46.109Z,-22.14
2022-11-29T20:50:29.688Z,-22.21
2022-11-29T20:53:26.454Z,-22.51
2022-11-29T20:55:55.186Z,-22.85
2022-11-29T20:58:24.165Z,-22.39
2022-11-29T21:00:54.469Z,-22.32
2022-11-29T21:03:24.249Z,-22.58
2022-11-29T21:05:55.128Z,-22.57
2022-11-29T21:08:27.528Z,-22.52
2022-11-29T21:11:13.470Z,-22.43
2022-11-29T21:13:42.647Z,-22.94
2022-11-29T21:16:13.305Z,-22.60
2022-11-29T21:18:42.553Z,-23.06
2022-11-29T21:21:21.194Z,-22.57
2022-11-29T21:24:00.079Z,-22.61
2022-11-29T21:26:43.628Z,-23.17
2022-11-29T21:29:18.327Z,-22.79
2022-11-29T21:31:49.267Z,-22.89
2022-11-29T21:34:18.394Z,-23.19
2022-11-29T21:36:55.054Z,-22.95
2022-11-29T21:39:26.430Z,-23.13
2022-11-29T21:41:54.888Z,-22.92
2022-11-29T21:44:23.813Z,-23.00
2022-11-29T21:46:52.556Z,-23.18
2022-11-29T21:49:21.267Z,-23.14
2022-11-29T21:51:50.194Z,-23.08
2022-11-29T21:54:19.028Z,-23.01
2022-11-29T21:56:47.954Z,-23.47
2022-11-29T21:59:16.830Z,-23.76
2022-11-29T22:01:46.007Z,-23.05
2022-11-29T22:04:15.344Z,-23.13
2022-11-29T22:06:44.000Z,-22.97
2022-11-29T22:09:12.620Z,-23.06
2022-11-29T22:11:41.556Z,-23.10
2022-11-29T22:14:15.903Z,-23.01
2022-11-29T22:16:56.454Z,-23.49
2022-11-29T22:19:28.155Z,-23.03
2022-11-29T22:22:02.903Z,-23.04
2022-11-29T22:24:35.346Z,-23.58
2022-11-29T22:27:04.930Z,-23.19
2022-11-29T22:29:33.647Z,-23.13
2022-11-29T22:32:03.427Z,-23.14
2022-11-29T22:34:32.540Z,-23.13
2022-11-29T22:37:01.311Z,-23.37
2022-11-29T22:39:30.068Z,-23.29
2022-11-29T22:41:58.915Z,-23.29
2022-11-29T22:44:27.749Z,-23.37
2022-11-29T22:46:57.011Z,-23.41
2022-11-29T22:49:25.787Z,-23.49
2022-11-29T22:51:55.684Z,-23.50
2022-11-29T22:54:24.446Z,-23.56
2022-11-29T22:56:53.255Z,-23.66
2022-11-29T22:59:24.742Z,-23.55
2022-11-29T23:01:53.512Z,-23.56
2022-11-29T23:04:22.224Z,-23.65
2022-11-29T23:06:51.276Z,-23.81
2022-11-29T23:09:22.975Z,-23.77
2022-11-29T23:11:54.835Z,-23.85
2022-11-29T23:14:25.182Z,-23.79
2022-11-29T23:16:54.299Z,-23.86
2022-11-29T23:19:23.199Z,-23.78
2022-11-29T23:21:52.696Z,-23.78
2022-11-29T23:24:21.542Z,-23.81
2022-11-29T23:26:50.451Z,-24.00
2022-11-29T23:29:20.665Z,-23.88
2022-11-29T23:31:50.382Z,-23.89
2022-11-29T23:34:19.083Z,-23.80
2022-11-29T23:36:52.652Z,-23.98
2022-11-29T23:39:22.028Z,-23.97
2022-11-29T23:41:50.848Z,-23.98
2022-11-29T23:44:19.857Z,-24.11
2022-11-29T23:46:49.120Z,-24.54
2022-11-29T23:49:18.001Z,-24.12
2022-11-29T23:51:46.868Z,-24.23
2022-11-29T23:54:15.619Z,-24.29
2022-11-29T23:56:44.329Z,-24.20
2022-11-29T23:59:13.351Z,-24.23
